• Join FlightAware (Why Join?)
  • Login
  • US Flag 
08:34PM EST


 

Airport Tracker/Info


-or-


 

Live Flight TrackerFlight Track Log ✈ ASQ5992 ✈ 25-Apr-2014 ✈ KDEN - CYWG

Flight Track Log - Related Links

Times and Time Zones

All times are in EDT time to prevent confusion due to time zone crossing. See the ASQ5992 flight status page for this flight to view local times or setup timezone preferences in your user account.

Time Position Orientation Groundspeed Altitude Reporting Facility
EDT Latitude Longitude Course Direction KTS MPH feet Rate Location/Type
02:57PM 39.8833 -104.5833 42° Northeast 180 207 7,300  Level Denver TRACON
02:58PM 39.9000 -104.4833 78° East 255 293 9,200 1,916 Climbing Denver TRACON
02:59PM 39.9500 -104.4167 46° Northeast 305 351 11,100 1,888 Climbing Denver TRACON
03:01PM 40.0756 -104.3717 15° North 340 391 13,700 1,792 Climbing Denver Center
03:02PM 40.3461 -104.4539 37° Northeast  Level FlightAware Approximate
03:02PM 40.1733 -104.3442 12° North 360 414 15,400  Level Denver Center
03:03PM 40.4333 -104.3639 42° Northeast  Level FlightAware Approximate
03:03PM 40.2750 -104.3161 12° North 374 430 17,100  Level Denver Center
03:04PM 40.3881 -104.2872 11° North 385 443 19,100 1,790 Climbing Denver Center
03:05PM 40.4897 -104.2572 13° North 378 435 20,800 1,742 Climbing Denver Center
03:06PM 40.5950 -104.2275 12° North 377 434 22,700 1,887 Climbing Denver Center
03:07PM 40.6942 -104.1717 23° Northeast 384 442 24,700 1,790 Climbing Denver Center
03:08PM 40.7942 -104.1158 23° Northeast 387 445 26,400 1,742 Climbing Denver Center
03:09PM 40.8925 -104.0592 24° Northeast 389 448 28,300 1,694 Climbing Denver Center
03:10PM 40.9969 -104.0014 23° Northeast 382 440 29,900 1,645 Climbing Denver Center
03:11PM 41.1064 -103.9378 24° Northeast 384 442 31,700 1,548 Climbing Denver Center
03:12PM 41.1989 -103.8844 23° Northeast 381 438 33,100 1,210 Climbing Denver Center
03:13PM 41.3075 -103.8228 23° Northeast 381 438 34,200 823 Climbing Denver Center
03:14PM 41.4039 -103.7672 23° Northeast 389 448 34,800 387 Climbing Denver Center
03:15PM 41.5228 -103.6972 24° Northeast 416 479 35,000 97 Climbing Denver Center
03:16PM 41.6314 -103.6353 23° Northeast 439 505 35,000  Level Denver Center
03:17PM 41.7658 -103.5569 23° Northeast 468 539 35,000  Level Denver Center
03:18PM 41.8833 -103.4889 23° Northeast 478 550 35,000  Level Denver Center
03:19PM 42.0242 -103.4133 22° Northeast 485 558 35,000  Level Denver Center
03:20PM 42.1447 -103.3503 21° North 486 559 35,000  Level Denver Center
03:21PM 42.2853 -103.2750 22° Northeast 486 559 35,000  Level Denver Center
03:22PM 42.4050 -103.2106 22° Northeast 486 559 35,000  Level Denver Center
03:23PM 42.5436 -103.1364 22° Northeast 484 557 35,000  Level Denver Center
03:24PM 42.6625 -103.0744 21° North 483 556 35,000  Level Denver Center
03:26PM 42.7981 -103.0003 22° Northeast 473 544 35,000  Level Denver Center
03:27PM 42.9156 -102.9358 22° Northeast 474 545 35,000  Level Denver Center
03:28PM 43.0325 -102.8731 21° North 473 544 35,000  Level Denver Center
03:29PM 43.1689 -102.7975 22° Northeast 473 544 35,000  Level Denver Center
03:30PM 43.2853 -102.7333 22° Northeast 473 544 35,000  Level Denver Center
03:31PM 43.4211 -102.6603 21° North 471 542 35,000  Level Denver Center
03:32PM 43.5369 -102.5944 22° Northeast 471 542 35,000  Level Denver Center
03:33PM 43.6700 -102.5206 22° Northeast 467 537 35,000  Level Denver Center
03:34PM 43.7833 -102.4561 22° Northeast 464 534 35,000  Level Denver Center
03:35PM 43.9006 -102.3919 22° Northeast 465 535 35,000  Level Denver Center
03:36PM 44.0456 -102.3106 22° Northeast 466 536 35,000  Level Denver Center
03:37PM 44.1647 -102.2439 22° Northeast 465 535 35,000  Level Denver Center
03:38PM 44.2850 -102.1772 22° Northeast 465 535 35,000  Level Denver Center
03:39PM 44.4022 -102.1069 23° Northeast 462 532 35,000  Level Denver Center
03:40PM 44.5239 -102.0397 21° North 463 533 35,000  Level Denver Center
03:41PM 44.6428 -101.9697 23° Northeast 463 533 35,000  Level Denver Center
03:42PM 44.7619 -101.9011 22° Northeast 464 534 35,000  Level Minneapolis Center
03:43PM 44.8828 -101.8317 22° Northeast 464 534 35,000  Level Minneapolis Center
03:44PM 45.0019 -101.7614 23° Northeast 464 534 35,000  Level Minneapolis Center
03:45PM 45.1153 -101.6736 29° Northeast 467 537 35,000  Level Minneapolis Center
03:46PM 45.2233 -101.5567 37° Northeast 480 552 35,000  Level Minneapolis Center
03:47PM 45.3492 -101.4161 38° Northeast 481 554 35,000  Level Minneapolis Center
03:48PM 45.4536 -101.2994 38° Northeast 481 554 35,000  Level Minneapolis Center
03:49PM 45.5572 -101.1814 39° Northeast 481 554 35,000  Level Minneapolis Center
03:50PM 45.6606 -101.0639 38° Northeast 478 550 35,000  Level Minneapolis Center
03:51PM 45.7625 -100.9478 38° Northeast 472 543 35,000  Level Minneapolis Center
03:52PM 45.8628 -100.8328 39° Northeast 464 534 35,000  Level Minneapolis Center
03:53PM 45.9708 -100.7356 32° Northeast 461 531 35,000  Level Minneapolis Center
03:54PM 46.0833 -100.6633 24° Northeast 448 516 35,000  Level Minneapolis Center
03:55PM 46.2192 -100.5725 25° Northeast 448 516 35,000  Level Minneapolis Center
03:56PM 46.3328 -100.4967 25° Northeast 448 516 35,000  Level Minneapolis Center
03:57PM 46.4458 -100.4208 25° Northeast 448 516 35,000  Level Minneapolis Center
03:58PM 46.5597 -100.3431 25° Northeast 448 516 35,000  Level Minneapolis Center
03:59PM 46.6736 -100.2678 24° Northeast 448 516 35,000  Level Minneapolis Center
04:00PM 46.7861 -100.1894 25° Northeast 448 516 35,000  Level Minneapolis Center
04:01PM 46.9153 -100.1006 25° Northeast 448 516 35,000  Level Minneapolis Center
04:03PM 47.0283 -100.0222 25° Northeast 449 517 35,000  Level Minneapolis Center
04:04PM 47.1414 -99.9439 25° Northeast 449 517 35,000  Level Minneapolis Center
04:05PM 47.2533 -99.8656 25° Northeast 449 517 35,000  Level Minneapolis Center
04:06PM 47.3689 -99.7858 25° Northeast 452 520 35,000  Level Minneapolis Center
04:07PM 47.4825 -99.7044 26° Northeast 453 521 35,000  Level Minneapolis Center
04:08PM 47.5961 -99.6244 25° Northeast 453 521 35,000 -290 Level Minneapolis Center
04:09PM 47.7325 -99.5281 25° Northeast 453 521 34,400 -1,016 Descending Minneapolis Center
04:10PM 47.8444 -99.4478 26° Northeast 452 520 32,900 -1,452 Descending Minneapolis Center
04:11PM 47.9542 -99.3686 26° Northeast 443 510 31,400 -1,500 Descending Minneapolis Center
04:12PM 48.0719 -99.2856 25° Northeast 456 525 29,800 -1,561 Descending Minneapolis Center
04:13PM 48.1856 -99.2017 26° Northeast 457 526 28,200 -1,512 Descending Minneapolis Center
04:14PM 48.2947 -99.1261 25° Northeast 441 507 26,700 -1,500 Descending Minneapolis Center
04:15PM 48.4053 -99.0436 26° Northeast 439 505 25,100 -1,694 Descending Minneapolis Center
04:16PM 48.5375 -98.9456 26° Northeast 439 505 23,200 -1,645 Descending Minneapolis Center
04:17PM 48.6447 -98.8658 26° Northeast 439 505 21,700 -1,065 Descending Minneapolis Center
04:18PM 48.7489 -98.7892 26° Northeast 431 496 21,000 -339 Descending Minneapolis Center
04:19PM 48.8519 -98.7125 26° Northeast 422 486 21,000  Level Minneapolis Center
04:20PM 48.9167 -98.6500 32° Northeast 420 483 21,000  Level Winnipeg Center
04:21PM 49.0167 -98.5667 29° Northeast 410 472 21,000  Level Winnipeg Center
04:22PM 49.1333 -98.5000 20° North 420 483 21,000 -150 Level Winnipeg Center
04:23PM 49.2333 -98.4000 33° Northeast 420 483 20,700 -1,200 Descending Winnipeg Center
04:24PM 49.3333 -98.3333 23° Northeast 420 483 18,600 -2,000 Descending Winnipeg Center
04:25PM 49.4333 -98.2500 28° Northeast 400 460 16,700 -1,950 Descending Winnipeg Center
04:26PM 49.5333 -98.1833 23° Northeast 390 449 14,700 -1,850 Descending Winnipeg Center
04:27PM 49.6167 -98.1000 33° Northeast 370 426 13,000 -1,700 Descending Winnipeg Center
04:28PM 49.7000 -98.0500 21° North 360 414 11,300 -1,300 Descending Winnipeg Center
04:29PM 49.7667 -97.9500 44° Northeast 310 357 10,400 -1,100 Descending Winnipeg Center
04:30PM 49.8333 -97.8500 44° Northeast 280 322 9,100 -700 Descending Winnipeg Center
04:31PM 49.8667 -97.7500 63° Northeast 280 322 9,000 -700 Descending Winnipeg Center
04:32PM 49.9167 -97.6667 47° Northeast 260 299 7,700 -2,200 Descending Winnipeg Center
04:33PM 49.9500 -97.5667 63° Northeast 250 288 4,600 -2,100 Descending Winnipeg Center
04:34PM 49.9833 -97.4833 58° Northeast 210 242 3,500 -800 Descending Winnipeg Center
04:35PM 50.0000 -97.4000 73° East 200 230 3,000 -450 Descending Winnipeg Center
04:36PM 49.9667 -97.3333 128° Southeast 190 219 2,600 -600 Descending Winnipeg Center
04:37PM 49.9333 -97.2833 136° Southeast 130 150 1,800 -800 Descending Winnipeg Center
04:38PM 49.9000 -97.2500 147° Southeast 140 161 1,000 -800 Descending Winnipeg Center